.
WxDataArchive / Data Records for 2010-01-22
2010-01-21 January 2010 2010-01-23

Data Records for Friday, 22 January 2010

Time	Temp	Chill	HIndex	Humid	Dewpt	 Wind 	HiWind	WindDir	Rain 	Barom 
-----	----	-----	------	-----	-----	------	------	-------	-----	----- 
00:00	32.7	32.7	32.7	81	27.5	3	11	112	0.00	29.787 
00:05	32.7	32.7	32.7	81	27.5	2	7	112	0.00	29.787 
00:10	32.7	28.9	32.7	80	27.2	4	13	112	0.00	29.787 
00:15	32.8	32.8	32.8	80	27.3	2	7	112	0.00	29.785 
00:20	32.8	32.8	32.8	80	27.3	2	6	112	0.00	29.785 
00:25	32.7	32.7	32.7	80	27.2	2	9	90	0.00	29.785 
00:30	32.7	32.7	32.7	80	27.2	3	9	112	0.00	29.781 
00:35	32.7	32.7	32.7	80	27.2	2	5	90	0.00	29.781 
00:40	32.7	32.7	32.7	79	26.9	3	10	112	0.00	29.781 
00:45	32.7	32.7	32.7	79	26.9	2	7	22	0.00	29.792 
00:50	32.7	32.7	32.7	79	26.9	2	6	90	0.00	29.792 
00:55	32.7	32.7	32.7	80	27.2	1	9	90	0.00	29.792 
01:00	32.7	32.7	32.7	79	26.9	2	6	45	0.00	29.795 
01:05	32.7	32.7	32.7	79	26.9	2	10	112	0.00	29.795 
01:10	32.7	32.7	32.7	79	26.9	2	5	90	0.00	29.795 
01:15	32.7	32.7	32.7	79	26.9	2	6	112	0.00	29.799 
01:20	32.7	32.7	32.7	79	26.9	2	10	90	0.00	29.799 
01:25	32.7	32.7	32.7	79	26.9	2	5	45	0.00	29.799 
01:30	32.7	32.7	32.7	79	26.9	2	11	45	0.00	29.801 
01:35	32.7	32.7	32.7	79	26.9	2	6	112	0.00	29.801 
01:40	32.8	32.8	32.8	79	27.0	1	4	112	0.00	29.801 
01:45	32.8	32.8	32.8	79	27.0	1	4	112	0.00	29.803 
01:50	32.8	32.8	32.8	79	27.0	1	3	45	0.00	29.803 
01:55	32.7	32.7	32.7	79	26.9	1	3	22	0.00	29.803 
02:00	32.7	32.7	32.7	79	26.9	2	4	90	0.00	29.811 
02:05	32.7	32.7	32.7	79	26.9	2	5	45	0.00	29.811 
02:10	32.7	32.7	32.7	80	27.2	2	6	112	0.00	29.811 
02:15	32.7	32.7	32.7	79	26.9	2	5	112	0.00	29.815 
02:20	32.7	32.7	32.7	80	27.2	2	6	45	0.00	29.815 
02:25	32.7	32.7	32.7	80	27.2	2	5	45	0.00	29.815 
02:30	32.7	32.7	32.7	80	27.2	2	6	112	0.00	29.816 
02:35	32.7	32.7	32.7	80	27.2	3	10	112	0.00	29.816 
02:40	32.7	32.7	32.7	80	27.2	2	7	112	0.00	29.816 
02:45	32.7	32.7	32.7	81	27.5	3	8	112	0.00	29.815 
02:50	32.7	32.7	32.7	82	27.8	3	12	90	0.00	29.815 
02:55	32.5	32.5	32.5	83	27.9	3	9	112	0.00	29.815 
03:00	32.4	32.4	32.4	84	28.1	2	7	112	0.00	29.817 
03:05	32.4	32.4	32.4	84	28.1	2	7	90	0.00	29.817 
03:10	32.2	32.2	32.2	84	27.9	2	4	68	0.00	29.817 
03:15	32.2	32.2	32.2	84	27.9	1	5	112	0.00	29.822 
03:20	32.2	32.2	32.2	84	27.9	1	4	68	0.00	29.822 
03:25	32.2	32.2	32.2	85	28.2	2	7	112	0.00	29.822 
03:30	32.1	32.1	32.1	85	28.1	3	8	112	0.00	29.821 
03:35	31.9	31.9	31.9	86	28.2	2	7	112	0.00	29.821 
03:40	31.9	31.9	31.9	87	28.5	2	10	112	0.00	29.821 
03:45	31.8	31.8	31.8	88	28.7	3	13	112	0.00	29.823 
03:50	31.8	31.8	31.8	88	28.7	2	6	112	0.00	29.823 
03:55	31.6	31.6	31.6	89	28.7	1	5	22	0.00	29.823 
04:00	31.6	31.6	31.6	89	28.7	2	9	112	0.00	29.818 
04:05	31.5	31.5	31.5	89	28.6	2	9	90	0.00	29.818 
04:10	31.5	31.5	31.5	89	28.6	2	7	90	0.00	29.818 
04:15	31.6	31.6	31.6	89	28.7	2	6	112	0.00	29.818 
04:20	31.6	31.6	31.6	89	28.7	2	7	90	0.00	29.818 
04:25	31.6	31.6	31.6	89	28.7	2	6	112	0.00	29.818 
04:30	31.8	31.8	31.8	88	28.7	2	9	112	0.00	29.817 
04:35	31.8	31.8	31.8	88	28.7	2	7	90	0.00	29.817 
04:40	31.8	31.8	31.8	87	28.4	2	6	112	0.00	29.817 
04:45	31.9	31.9	31.9	86	28.2	1	3	90	0.00	29.816 
04:50	31.9	31.9	31.9	86	28.2	2	6	90	0.00	29.816 
04:55	32.1	32.1	32.1	85	28.1	3	6	112	0.00	29.816 
05:00	32.1	32.1	32.1	85	28.1	2	6	112	0.00	29.829 
05:05	32.1	32.1	32.1	86	28.4	1	6	90	0.00	29.829 
05:10	32.1	32.1	32.1	86	28.4	2	7	90	0.00	29.829 
05:15	31.9	31.9	31.9	87	28.5	2	7	90	0.00	29.834 
05:20	31.9	31.9	31.9	88	28.8	2	5	90	0.00	29.834 
05:25	31.8	31.8	31.8	88	28.7	1	4	45	0.00	29.834 
05:30	31.8	31.8	31.8	88	28.7	1	6	112	0.00	29.845 
05:35	31.8	31.8	31.8	89	28.9	2	6	45	0.00	29.845 
05:40	31.8	31.8	31.8	89	28.9	1	5	90	0.00	29.845 
05:45	31.8	31.8	31.8	90	29.2	1	3	90	0.00	29.852 
05:50	31.9	31.9	31.9	90	29.3	1	5	90	0.00	29.852 
05:55	31.9	31.9	31.9	90	29.3	1	3	90	0.00	29.852 
06:00	31.9	31.9	31.9	90	29.3	1	3	68	0.00	29.864 
06:05	31.9	31.9	31.9	91	29.6	1	3	0	0.00	29.864 
06:10	32.1	32.1	32.1	91	29.8	1	2	22	0.00	29.864 
06:15	32.1	32.1	32.1	91	29.8	0	2	22	0.00	29.875 
06:20	32.1	32.1	32.1	91	29.8	0	2	22	0.00	29.875 
06:25	32.1	32.1	32.1	91	29.8	1	6	45	0.00	29.875 
06:30	32.1	32.1	32.1	92	30.0	0	3	22	0.00	29.879 
06:35	31.9	31.9	31.9	92	29.8	1	4	22	0.00	29.879 
06:40	31.9	31.9	31.9	92	29.8	1	3	45	0.00	29.879 
06:45	31.9	31.9	31.9	92	29.8	1	4	112	0.00	29.878 
06:50	31.9	31.9	31.9	92	29.8	0	6	68	0.00	29.878 
06:55	31.8	31.8	31.8	92	29.7	1	3	135	0.00	29.878 
07:00	31.8	31.8	31.8	92	29.7	2	5	45	0.00	29.880 
07:05	31.6	31.6	31.6	92	29.5	1	4	45	0.00	29.880 
07:10	31.6	31.6	31.6	92	29.5	1	4	45	0.00	29.880 
07:15	31.6	31.6	31.6	91	29.3	1	5	112	0.00	29.886 
07:20	31.6	31.6	31.6	91	29.3	0	3	112	0.00	29.886 
07:25	31.6	31.6	31.6	91	29.3	0	3	45	0.00	29.886 
07:30	31.6	31.6	31.6	91	29.3	1	5	22	0.00	29.886 
07:35	31.6	31.6	31.6	91	29.3	1	5	90	0.00	29.886 
07:40	31.6	31.6	31.6	91	29.3	0	2	90	0.00	29.886 
07:45	31.6	31.6	31.6	91	29.3	1	4	45	0.00	29.896 
07:50	31.6	31.6	31.6	90	29.0	0	1	45	0.00	29.896 
07:55	31.6	31.6	31.6	90	29.0	1	3	22	0.00	29.896 
08:00	31.6	31.6	31.6	90	29.0	0	2	22	0.00	29.896 
08:05	31.6	31.6	31.6	90	29.0	0	4	112	0.00	29.896 
08:10	31.6	31.6	31.6	90	29.0	1	3	90	0.00	29.896 
08:15	31.6	31.6	31.6	90	29.0	0	3	90	0.00	29.905 
08:20	31.8	31.8	31.8	90	29.2	0	2	90	0.00	29.905 
08:25	31.8	31.8	31.8	90	29.2	1	2	68	0.00	29.905 
08:30	31.8	31.8	31.8	90	29.2	0	2	68	0.00	29.901 
08:35	31.8	31.8	31.8	90	29.2	1	4	112	0.00	29.901 
08:40	31.8	31.8	31.8	90	29.2	1	4	112	0.00	29.901 
08:45	31.9	31.9	31.9	89	29.0	0	2	112	0.00	29.913 
08:50	31.9	31.9	31.9	89	29.0	1	5	112	0.00	29.913 
08:55	31.9	31.9	31.9	89	29.0	0	2	68	0.00	29.913 
09:00	32.1	32.1	32.1	89	29.2	1	4	90	0.00	29.920 
09:05	32.1	32.1	32.1	89	29.2	1	2	90	0.00	29.920 
09:10	32.2	32.2	32.2	89	29.3	0	2	90	0.00	29.920 
09:15	32.2	32.2	32.2	89	29.3	1	5	90	0.00	29.926 
09:20	32.4	32.4	32.4	89	29.5	1	4	90	0.00	29.926 
09:25	32.4	32.4	32.4	89	29.5	1	4	68	0.00	29.926 
09:30	32.4	32.4	32.4	89	29.5	0	3	45	0.00	29.930 
09:35	32.5	32.5	32.5	89	29.6	1	2	45	0.00	29.930 
09:40	32.5	32.5	32.5	88	29.3	1	4	112	0.00	29.930 
09:45	32.7	32.7	32.7	88	29.5	1	4	112	0.00	29.929 
09:50	32.7	32.7	32.7	88	29.5	1	5	68	0.00	29.929 
09:55	32.5	32.5	32.5	88	29.3	2	6	90	0.00	29.929 
10:00	32.5	32.5	32.5	88	29.3	1	5	90	0.00	29.928 
10:05	32.7	32.7	32.7	88	29.5	2	6	112	0.00	29.928 
10:10	32.8	32.8	32.8	88	29.6	1	5	112	0.00	29.928 
10:15	32.8	32.8	32.8	88	29.6	2	7	90	0.00	29.925 
10:20	32.8	32.8	32.8	88	29.6	1	4	68	0.00	29.925 
10:25	32.8	32.8	32.8	88	29.6	2	10	45	0.00	29.925 
10:30	32.8	32.8	32.8	88	29.6	3	11	90	0.00	29.931 
10:35	32.8	32.8	32.8	88	29.6	2	8	90	0.00	29.931 
10:40	32.8	32.8	32.8	88	29.6	3	7	90	0.00	29.931 
10:45	32.8	32.8	32.8	88	29.6	2	7	112	0.00	29.935 
10:50	32.9	32.9	32.9	88	29.7	2	6	112	0.00	29.935 
10:55	32.8	32.8	32.8	88	29.6	3	10	90	0.00	29.935 
11:00	32.9	32.9	32.9	88	29.7	2	5	90	0.00	29.934 
11:05	33.1	33.1	33.1	87	29.7	3	7	112	0.00	29.934 
11:10	33.1	33.1	33.1	87	29.7	3	9	112	0.00	29.934 
11:15	33.2	33.2	33.2	87	29.8	2	7	112	0.00	29.939 
11:20	33.2	29.5	33.2	87	29.8	4	10	90	0.00	29.939 
11:25	33.1	29.3	33.1	87	29.7	4	10	112	0.00	29.939 
11:30	33.1	33.1	33.1	87	29.7	3	10	90	0.00	29.937 
11:35	33.2	33.2	33.2	87	29.8	2	6	112	0.00	29.937 
11:40	33.1	29.3	33.1	87	29.7	4	12	112	0.00	29.937 
11:45	33.1	33.1	33.1	87	29.7	2	10	112	0.00	29.936 
11:50	33.1	29.3	33.1	87	29.7	4	9	90	0.00	29.936 
11:55	33.1	33.1	33.1	87	29.7	3	7	112	0.00	29.936 
12:00	33.2	33.2	33.2	86	29.5	2	11	112	0.00	29.940 
12:05	33.2	33.2	33.2	86	29.5	3	10	112	0.00	29.940 
12:10	33.2	33.2	33.2	86	29.5	2	7	112	0.00	29.940 
12:15	33.2	33.2	33.2	87	29.8	1	4	112	0.00	29.944 
12:20	33.4	33.4	33.4	87	30.0	2	10	90	0.00	29.944 
12:25	33.2	33.2	33.2	88	30.0	3	9	112	0.00	29.944 
12:30	33.2	33.2	33.2	88	30.0	1	4	90	0.00	29.950 
12:35	33.2	33.2	33.2	88	30.0	1	4	90	0.00	29.950 
12:40	33.1	33.1	33.1	89	30.2	1	3	112	0.00	29.950 
12:45	33.2	33.2	33.2	89	30.3	1	2	68	0.00	29.957 
12:50	33.4	33.4	33.4	89	30.5	1	3	68	0.00	29.957 
12:55	33.4	33.4	33.4	89	30.5	2	7	90	0.00	29.957 
13:00	33.2	33.2	33.2	90	30.6	1	6	112	0.00	29.951 
13:05	33.4	33.4	33.4	90	30.8	1	4	90	0.00	29.951 
13:10	33.5	33.5	33.5	90	30.9	1	5	112	0.00	29.951 
13:15	33.7	33.7	33.7	89	30.8	1	9	90	0.00	29.949 
13:20	33.7	33.7	33.7	89	30.8	3	10	112	0.00	29.949 
13:25	33.7	33.7	33.7	88	30.5	3	10	90	0.00	29.949 
13:30	34.0	34.0	34.0	88	30.8	2	6	90	0.00	29.951 
13:35	34.0	34.0	34.0	87	30.5	1	4	90	0.00	29.951 
13:40	34.1	34.1	34.1	87	30.6	2	5	112	0.00	29.951 
13:45	34.4	34.4	34.4	86	30.7	2	6	112	0.00	29.957 
13:50	34.6	34.6	34.6	86	30.9	1	7	112	0.00	29.957 
13:55	34.6	34.6	34.6	85	30.6	2	4	112	0.00	29.957 
14:00	34.7	34.7	34.7	85	30.7	1	3	68	0.00	29.965 
14:05	34.7	34.7	34.7	84	30.4	2	5	135	0.00	29.965 
14:10	34.9	34.9	34.9	84	30.6	1	6	135	0.00	29.965 
14:15	34.9	34.9	34.9	83	30.3	1	4	90	0.00	29.970 
14:20	35.2	35.2	35.2	84	30.9	0	2	90	0.00	29.970 
14:25	35.5	35.5	35.5	83	30.9	1	4	90	0.00	29.970 
14:30	35.6	35.6	35.6	82	30.7	1	3	45	0.00	29.964 
14:35	35.6	35.6	35.6	81	30.4	2	7	112	0.00	29.964 
14:40	35.6	35.6	35.6	81	30.4	1	4	135	0.00	29.964 
14:45	35.8	35.8	35.8	81	30.6	1	5	135	0.00	29.959 
14:50	35.8	35.8	35.8	81	30.6	2	6	112	0.00	29.959 
14:55	35.8	35.8	35.8	81	30.6	2	5	112	0.00	29.959 
15:00	35.8	35.8	35.8	81	30.6	2	8	112	0.00	29.963 
15:05	35.6	35.6	35.6	81	30.4	3	9	112	0.00	29.963 
15:10	35.6	35.6	35.6	81	30.4	1	6	112	0.00	29.963 
15:15	35.8	35.8	35.8	81	30.6	1	5	90	0.00	29.970 
15:20	35.6	35.6	35.6	81	30.4	2	6	112	0.00	29.970 
15:25	35.6	35.6	35.6	81	30.4	1	5	90	0.00	29.970 
15:30	35.6	35.6	35.6	81	30.4	1	4	112	0.00	29.972 
15:35	35.6	35.6	35.6	81	30.4	1	4	112	0.00	29.972 
15:40	35.6	35.6	35.6	81	30.4	1	5	112	0.00	29.972 
15:45	35.6	35.6	35.6	81	30.4	2	7	112	0.00	29.984 
15:50	35.6	35.6	35.6	81	30.4	1	4	22	0.00	29.984 
15:55	35.6	35.6	35.6	81	30.4	3	9	112	0.00	29.984 
16:00	35.5	32.1	35.5	82	30.6	4	10	112	0.00	29.969 
16:05	35.5	30.4	35.5	82	30.6	6	12	112	0.00	29.969 
16:10	35.2	30.0	35.2	82	30.3	6	13	90	0.00	29.969 
16:15	35.0	31.5	35.0	83	30.4	4	11	90	0.00	29.971 
16:20	35.0	31.5	35.0	83	30.4	4	9	112	0.00	29.971 
16:25	34.9	34.9	34.9	83	30.3	3	10	112	0.00	29.971 
16:30	34.9	30.5	34.9	83	30.3	5	11	90	0.00	29.986 
16:35	34.7	34.7	34.7	83	30.1	3	9	112	0.00	29.986 
16:40	34.7	34.7	34.7	84	30.4	3	6	90	0.00	29.986 
16:45	34.7	34.7	34.7	84	30.4	2	7	112	0.00	29.988 
16:50	34.7	34.7	34.7	84	30.4	3	9	90	0.00	29.988 
16:55	34.6	31.1	34.6	84	30.3	4	10	112	0.00	29.988 
17:00	34.6	34.6	34.6	84	30.3	3	11	90	0.00	30.000 
17:05	34.4	34.4	34.4	84	30.1	2	6	90	0.00	30.000 
17:10	34.4	34.4	34.4	84	30.1	2	5	90	0.00	30.000 
17:15	34.4	34.4	34.4	84	30.1	1	4	90	0.00	30.012 
17:20	34.4	34.4	34.4	84	30.1	2	5	90	0.00	30.012 
17:25	34.3	34.3	34.3	84	30.0	2	5	90	0.00	30.012 
17:30	34.3	34.3	34.3	85	30.3	1	4	112	0.00	30.015 
17:35	34.3	34.3	34.3	85	30.3	1	4	112	0.00	30.015 
17:40	34.3	34.3	34.3	85	30.3	2	4	90	0.00	30.015 
17:45	34.1	34.1	34.1	85	30.1	1	5	90	0.00	30.021 
17:50	34.1	34.1	34.1	85	30.1	1	4	90	0.00	30.021 
17:55	34.1	34.1	34.1	85	30.1	1	4	90	0.00	30.021 
18:00	34.1	34.1	34.1	86	30.4	1	5	90	0.00	30.022 
18:05	34.0	34.0	34.0	86	30.3	0	2	90	0.00	30.022 
18:10	34.0	34.0	34.0	86	30.3	0	1	90	0.00	30.022 
18:15	34.0	34.0	34.0	86	30.3	0	1	90	0.00	30.037 
18:20	34.0	34.0	34.0	86	30.3	0	3	90	0.00	30.037 
18:25	33.8	33.8	33.8	86	30.1	0	3	90	0.00	30.037 
18:30	33.8	33.8	33.8	86	30.1	0	3	90	0.00	30.046 
18:35	33.8	33.8	33.8	86	30.1	0	2	90	0.00	30.046 
18:40	33.8	33.8	33.8	86	30.1	0	2	90	0.00	30.046 
18:45	33.8	33.8	33.8	86	30.1	0	2	90	0.00	30.056 
18:50	33.8	33.8	33.8	86	30.1	0	2	90	0.00	30.056 
18:55	33.8	33.8	33.8	86	30.1	0	2	90	0.00	30.056 
19:00	33.8	33.8	33.8	86	30.1	0	1	90	0.00	30.066 
19:05	33.8	33.8	33.8	86	30.1	0	1	90	0.00	30.066 
19:10	33.8	33.8	33.8	86	30.1	0	1	90	0.00	30.066 
19:15	33.8	33.8	33.8	86	30.1	0	2	90	0.00	30.074 
19:20	33.8	33.8	33.8	86	30.1	0	2	90	0.00	30.074 
19:25	33.7	33.7	33.7	86	30.0	1	3	112	0.00	30.074 
19:30	33.7	33.7	33.7	86	30.0	0	2	112	0.00	30.068 
19:35	33.7	33.7	33.7	86	30.0	1	4	112	0.00	30.068 
19:40	33.7	33.7	33.7	86	30.0	1	3	112	0.00	30.068 
19:45	33.7	33.7	33.7	86	30.0	1	4	112	0.00	30.068 
19:50	33.7	33.7	33.7	86	30.0	2	6	90	0.00	30.068 
19:55	33.5	33.5	33.5	86	29.8	2	6	90	0.00	30.068 
20:00	33.5	33.5	33.5	86	29.8	2	5	68	0.00	30.067 
20:05	33.5	33.5	33.5	86	29.8	1	4	90	0.00	30.067 
20:10	33.5	33.5	33.5	86	29.8	1	4	90	0.00	30.067 
20:15	33.5	33.5	33.5	86	29.8	2	5	90	0.00	30.068 
20:20	33.5	33.5	33.5	86	29.8	2	5	90	0.00	30.068 
20:25	33.5	33.5	33.5	86	29.8	1	3	112	0.00	30.068 
20:30	33.5	33.5	33.5	86	29.8	1	3	112	0.00	30.074 
20:35	33.5	33.5	33.5	86	29.8	1	2	112	0.00	30.074 
20:40	33.5	33.5	33.5	86	29.8	1	3	112	0.00	30.074 
20:45	33.5	33.5	33.5	86	29.8	2	7	90	0.00	30.071 
20:50	33.5	33.5	33.5	86	29.8	2	4	90	0.00	30.071 
20:55	33.5	33.5	33.5	86	29.8	1	3	68	0.00	30.071 
21:00	33.5	33.5	33.5	86	29.8	1	3	90	0.00	30.082 
21:05	33.5	33.5	33.5	87	30.1	1	3	90	0.00	30.082 
21:10	33.5	33.5	33.5	87	30.1	1	2	90	0.00	30.082 
21:15	33.5	33.5	33.5	87	30.1	1	3	90	0.00	30.083 
21:20	33.4	33.4	33.4	87	30.0	0	1	90	0.00	30.083 
21:25	33.4	33.4	33.4	87	30.0	0	1	90	0.00	30.083 
21:30	33.4	33.4	33.4	87	30.0	0	1	90	0.00	30.089 
21:35	33.4	33.4	33.4	87	30.0	0	2	90	0.00	30.089 
21:40	33.4	33.4	33.4	87	30.0	1	3	90	0.00	30.089 
21:45	33.4	33.4	33.4	87	30.0	0	3	90	0.00	30.084 
21:50	33.4	33.4	33.4	87	30.0	1	4	90	0.00	30.084 
21:55	33.4	33.4	33.4	87	30.0	1	3	90	0.00	30.084 
22:00	33.4	33.4	33.4	87	30.0	2	5	112	0.00	30.078 
22:05	33.4	33.4	33.4	87	30.0	2	6	90	0.00	30.078 
22:10	33.2	33.2	33.2	87	29.8	2	5	90	0.00	30.078 
22:15	33.2	33.2	33.2	87	29.8	2	5	112	0.00	30.068 
22:20	33.2	33.2	33.2	87	29.8	3	7	112	0.00	30.068 
22:25	33.2	33.2	33.2	87	29.8	2	6	90	0.00	30.068 
22:30	33.1	33.1	33.1	87	29.7	3	6	90	0.00	30.058 
22:35	33.1	33.1	33.1	87	29.7	3	6	90	0.00	30.058 
22:40	33.1	33.1	33.1	87	29.7	3	6	112	0.00	30.058 
22:45	33.1	33.1	33.1	87	29.7	2	6	90	0.00	30.051 
22:50	32.9	32.9	32.9	87	29.5	3	7	90	0.00	30.051 
22:55	32.8	29.0	32.8	87	29.4	4	10	112	0.00	30.051 
23:00	32.7	32.7	32.7	87	29.3	3	7	90	0.00	30.050 
23:05	32.5	32.5	32.5	87	29.1	3	6	90	0.00	30.050 
23:10	32.4	32.4	32.4	88	29.3	3	6	90	0.00	30.050 
23:15	32.2	32.2	32.2	88	29.1	3	7	112	0.00	30.039 
23:20	32.2	32.2	32.2	88	29.1	3	6	112	0.00	30.039 
23:25	32.2	28.3	32.2	88	29.1	4	10	112	0.00	30.039 
23:30	32.2	32.2	32.2	88	29.1	3	9	90	0.00	30.041 
23:35	32.2	32.2	32.2	88	29.1	3	7	112	0.00	30.041 
23:40	32.4	32.4	32.4	88	29.3	3	7	90	0.00	30.041 
23:45	32.5	32.5	32.5	88	29.3	2	5	68	0.00	30.050 
23:50	32.5	32.5	32.5	88	29.3	2	7	112	0.00	30.050 
23:55	32.7	32.7	32.7	88	29.5	2	4	112	0.00	30.050 

CoCoRaHS
IN-AL-39
A2 Web Hosting
Creative Commons License
GoDaddy
search engine by freefind advanced

loaded 2018-11-17 18:53:31 • last modified 2010-11-18 10:43:29
Privacy PolicyDisclaimer
• wx.awcolley.com is powered by PmWiki v.2002016 •
• all content (unless otherwise noted) © 2018 A W Colley